METAR Data
IDs: Format: Raw Decoded Include TAF

Data at: 0642 UTC 22 Oct 2021

KSEA 220553Z 13008KT 100V160 6SM -RA BR OVC065 14/12 A2981 RMK AO2 SLP099 P0007 60040 T01390117 10200 20122 51004
KSEA 220453Z VRB06KT 6SM -RA BR OVC070 14/12 A2980 RMK AO2 SLP097 P0010 T01390117
KSEA 220353Z 15009KT 4SM RA BR FEW017 BKN041 OVC050 13/12 A2981 RMK AO2 SLP099 P0016 T01280117
KSEA 220253Z 14006KT 6SM -RA BR FEW013 BKN032 OVC050 13/12 A2979 RMK AO2 SLP095 P0005 60007 T01280117 51044
KSEA 220237Z 15006KT 9SM -RA SCT013 BKN029 OVC080 12/11 A2979 RMK AO2 P0004 T01220111
KSEA 220153Z 23011KT 6SM -RA BR OVC070 13/11 A2978 RMK AO2 RAB14 SLP091 P0002 T01280111
KSEA 220053Z 27014G20KT 10SM OVC085 14/09 A2972 RMK AO2 PK WND 24030/0029 WSHFT 0019 RAB10E32B42E48 SLP069 P0000 T01440094
KSEA 220033Z 25019G30KT 10SM BKN080 OVC090 16/08 A2972 RMK AO2 PK WND 24030/0029 WSHFT 0019 RAB10E32 PRESRR P0000 T01610083
KSEA 212353Z 11014KT 10SM OVC080 20/05 A2966 RMK AO2 SLP050 60000 T02000050 10206 20172 56035
KSEA 212253Z 11012G25KT 10SM FEW037 BKN080 OVC140 20/05 A2968 RMK AO2 PK WND 12028/2235 RAB17E26 SLP056 P0000 T02000050
KSEA 212153Z 12016G26KT 10SM BKN090 BKN150 20/04 A2972 RMK AO2 PK WND 14026/2151 PRESFR SLP067 T02000044
KSEA 212053Z 13017G24KT 10SM BKN090 OVC150 20/04 A2977 RMK AO2 SLP085 T02000044 56017
KSEA 211953Z 14013KT 10SM SCT080 BKN150 BKN250 21/05 A2978 RMK AO2 SLP089 T02060050
KSEA 211853Z 12015KT 10SM BKN080 BKN160 BKN240 19/04 A2980 RMK AO2 PK WND 12026/1759 SLP095 T01890044
KSEA 211753Z 11013G24KT 10SM BKN080 BKN120 17/04 A2982 RMK AO2 SLP102 T01720039 10172 20122 58015
KSEA 211653Z 11012KT 10SM SCT075 BKN120 BKN250 17/04 A2983 RMK AO2 SLP107 T01670044
KSEA 211553Z 11011KT 10SM FEW120 BKN160 BKN250 16/04 A2986 RMK AO2 SLP117 T01560039
KSEA 211453Z 13009KT 10SM FEW120 SCT160 BKN250 14/04 A2986 RMK AO2 SLP118 T01390039 58002
KSEA 211353Z 11010KT 10SM BKN160 13/04 A2987 RMK AO2 SLP122 T01330039
KSEA 211253Z 11011KT 10SM BKN160 13/04 A2988 RMK AO2 SLP125 T01280039
KSEA 211153Z 12010KT 10SM FEW130 BKN230 12/04 A2987 RMK AO2 SLP120 70024 T01220039 10128 20106 58019
KSEA 211053Z 11010KT 10SM BKN130 12/04 A2989 RMK AO2 SLP128 T01220044
KSEA 210953Z 10003KT 10SM BKN130 11/05 A2992 RMK AO2 SLP139 T01110050
KSEA 210853Z 10008KT 10SM BKN100 11/05 A2993 RMK AO2 SLP140 T01110050 58018
KSEA 210758Z 11005KT 10SM BKN100 11/06 A2996 RMK AO2 T01110061
KSEA 210753Z 10SM BKN100 11/06 A2996 RMK AO2 SLP150 T01110061 401610106
KSEA 210653Z 11003KT 10SM BKN100 11/07 A2997 RMK AO2 SLP154 T01110067